Albrightsville, Pennsylvania
Current Conditions -  °F | °C
As of 5:53 AM on Monday 20 Oct 2014 (Local Time) from KMPO Reporting Station
Few Clouds Few Clouds  
Wind Chill:   Ceiling: Unl
Heat Index:   Visibility: 10mi
Dew Point: -3°   Wind: 3mph
Humidity: 78%   Direction: 280°W
Pressure: 30.03"   Gusts: NA
Location:  41°N, 75.53°W
Report Text: KMPO 200953Z AUTO 28003KT 10SM FEW120 01/M03 A3003 RMK AO2 SLP183 T00061028 TSNO $
Loading
Personal Weather Stations






























Interactive Weather Map
Tropical Storm Tracking
New forecast layout! Learn more

10-Day Weather Forecast

Advertisements
Track Severe Weather on mobile